Beulah, New Mexico
Current Conditions -  °F | °C
As of 3:53 PM on Friday 28 Nov 2014 (Local Time) from KLVS Reporting Station
Clear Clear  
Wind Chill: 65°   Ceiling: Unl
Heat Index: 65°   Visibility: 10mi
Dew Point:   Wind: 18mph
Humidity: 9%   Direction: 230°SW
Pressure: 30.06"   Gusts: NA
Location:  35.7797°N, 105.164°W
Report Text: KLVS 282253Z AUTO 23016KT 10SM CLR 18/M15 A3006 RMK AO2 SLP110 T01831150
Loading
Personal Weather Stations






























Interactive Weather Map New forecast layout! Learn more

10-Day Weather Forecast

Advertisements
Track Severe Weather on mobile